createdAt,value
2023-03-31T00:02:13.329Z,100306.97
2023-03-31T00:04:46.733Z,100300.88
2023-03-31T00:07:16.434Z,100297.38
2023-03-31T00:09:46.667Z,100298.22
2023-03-31T00:12:17.246Z,100288.63
2023-03-31T00:14:44.662Z,100292.13
2023-03-31T00:17:12.184Z,100273.00
2023-03-31T00:19:41.741Z,100278.22
2023-03-31T00:22:09.328Z,100271.28
2023-03-31T00:24:36.681Z,100264.31
2023-03-31T00:27:05.446Z,100261.72
2023-03-31T00:29:33.597Z,100267.75
2023-03-31T00:32:01.462Z,100257.25
2023-03-31T00:34:28.563Z,100251.97
2023-03-31T00:36:57.915Z,100253.69
2023-03-31T00:39:25.057Z,100245.00
2023-03-31T00:41:52.235Z,100232.88
2023-03-31T00:44:27.691Z,100227.66
2023-03-31T00:47:20.123Z,100228.47
2023-03-31T00:49:50.623Z,100224.94
2023-03-31T00:52:21.934Z,100224.94
2023-03-31T00:54:54.419Z,100223.25
2023-03-31T00:57:23.855Z,100220.69
2023-03-31T00:59:57.414Z,100213.81
2023-03-31T01:02:28.944Z,100219.09
2023-03-31T01:04:59.585Z,100210.47
2023-03-31T01:07:46.379Z,100205.38
2023-03-31T01:10:14.494Z,100201.09
2023-03-31T01:12:46.032Z,100194.94
2023-03-31T01:15:14.844Z,100202.78
2023-03-31T01:17:47.523Z,100188.03
2023-03-31T01:20:38.587Z,100181.09
2023-03-31T01:23:20.498Z,100184.56
2023-03-31T01:26:01.484Z,100177.66
2023-03-31T01:28:38.851Z,100169.78
2023-03-31T01:31:14.969Z,100162.81
2023-03-31T01:34:21.060Z,100142.81
2023-03-31T01:37:11.472Z,100140.22
2023-03-31T01:40:16.313Z,100127.16
2023-03-31T01:42:57.622Z,100118.47
2023-03-31T01:45:57.642Z,100117.59
2023-03-31T01:48:49.199Z,100113.25
2023-03-31T01:51:22.695Z,100117.66
2023-03-31T01:54:19.200Z,100095.91
2023-03-31T01:57:19.359Z,100099.44
2023-03-31T02:00:09.739Z,100089.88
2023-03-31T02:02:41.199Z,100081.19
2023-03-31T02:05:16.020Z,100079.44
2023-03-31T02:08:06.522Z,100072.44
2023-03-31T02:10:35.370Z,100068.13
2023-03-31T02:13:04.120Z,100062.91
2023-03-31T02:15:38.194Z,100049.88
2023-03-31T02:18:11.340Z,100045.53
2023-03-31T02:20:43.773Z,100039.38
2023-03-31T02:23:14.016Z,100043.75
2023-03-31T02:25:53.737Z,100042.03
2023-03-31T02:28:26.500Z,100031.59
2023-03-31T02:31:07.166Z,100025.59
2023-03-31T02:33:34.214Z,100016.88
2023-03-31T02:36:01.353Z,100008.19
2023-03-31T02:38:31.643Z,100005.59
2023-03-31T02:40:58.901Z,99989.94
2023-03-31T02:43:26.665Z,99985.56
2023-03-31T02:45:53.571Z,99976.84
2023-03-31T02:48:25.991Z,99960.31
2023-03-31T02:51:08.735Z,99956.84
2023-03-31T02:53:50.918Z,99955.03
2023-03-31T02:56:33.254Z,99935.91
2023-03-31T02:59:26.004Z,99937.63
2023-03-31T03:02:01.811Z,99920.25
2023-03-31T03:04:49.792Z,99914.13
2023-03-31T03:07:42.850Z,99914.88
2023-03-31T03:10:36.502Z,99910.59
2023-03-31T03:13:19.315Z,99883.66
2023-03-31T03:15:50.870Z,99887.09
2023-03-31T03:18:18.378Z,99869.72
2023-03-31T03:20:51.033Z,99882.75
2023-03-31T03:23:18.728Z,99873.97
2023-03-31T03:25:46.985Z,99875.81
2023-03-31T03:28:14.166Z,99867.09
2023-03-31T03:30:41.402Z,99848.84
2023-03-31T03:33:08.500Z,99845.34
2023-03-31T03:35:36.252Z,99853.22
2023-03-31T03:38:03.494Z,99840.19
2023-03-31T03:40:30.803Z,99830.66
2023-03-31T03:42:57.933Z,99828.00
2023-03-31T03:45:25.696Z,99829.75
2023-03-31T03:47:52.904Z,99829.75
2023-03-31T03:50:19.866Z,99822.81
2023-03-31T03:52:46.844Z,99810.66
2023-03-31T03:55:14.160Z,99799.34
2023-03-31T03:57:41.192Z,99803.59
2023-03-31T04:00:12.483Z,99798.44
2023-03-31T04:02:40.583Z,99786.31
2023-03-31T04:05:08.084Z,99775.03
2023-03-31T04:07:35.481Z,99749.84
2023-03-31T04:10:03.339Z,99752.53
2023-03-31T04:12:30.965Z,99751.69
2023-03-31T04:14:58.229Z,99765.66
2023-03-31T04:17:32.584Z,99770.88
2023-03-31T04:20:06.026Z,99776.09
2023-03-31T04:22:35.529Z,99765.66
2023-03-31T04:25:04.932Z,99749.09
2023-03-31T04:27:35.154Z,99740.41
2023-03-31T04:30:02.463Z,99737.84
2023-03-31T04:32:33.061Z,99723.06
2023-03-31T04:35:03.045Z,99703.06
2023-03-31T04:37:34.972Z,99675.25
2023-03-31T04:40:08.797Z,99681.25
2023-03-31T04:42:36.593Z,99695.25
2023-03-31T04:45:04.454Z,99684.81
2023-03-31T04:47:31.842Z,99683.78
2023-03-31T04:49:58.867Z,99657.84
2023-03-31T04:52:26.065Z,99654.47
2023-03-31T04:54:52.915Z,99654.44
2023-03-31T04:57:21.336Z,99638.81
2023-03-31T04:59:48.237Z,99638.66
2023-03-31T05:02:25.278Z,99630.19
2023-03-31T05:04:53.767Z,99620.72
2023-03-31T05:07:20.987Z,99611.06
2023-03-31T05:09:47.892Z,99607.75
2023-03-31T05:12:14.796Z,99601.78
2023-03-31T05:14:44.493Z,99597.47
2023-03-31T05:17:11.550Z,99588.38
2023-03-31T05:19:38.944Z,99590.47
2023-03-31T05:22:05.885Z,99588.81
2023-03-31T05:24:33.857Z,99580.22
2023-03-31T05:27:01.845Z,99577.66
2023-03-31T05:29:29.683Z,99573.41
2023-03-31T05:31:57.095Z,99568.19
2023-03-31T05:34:24.006Z,99569.69
2023-03-31T05:36:56.202Z,99564.63
2023-03-31T05:39:23.999Z,99561.94
2023-03-31T05:41:51.631Z,99560.22
2023-03-31T05:44:20.714Z,99555.00
2023-03-31T05:46:47.712Z,99556.72
2023-03-31T05:49:17.121Z,99540.13
2023-03-31T05:51:46.739Z,99543.59
2023-03-31T05:54:14.253Z,99537.53
2023-03-31T05:56:41.269Z,99537.44
2023-03-31T05:59:08.516Z,99534.91
2023-03-31T06:01:35.608Z,99529.34
2023-03-31T06:04:03.171Z,99531.13
2023-03-31T06:06:30.871Z,99525.88
2023-03-31T06:09:00.042Z,99518.91
2023-03-31T06:11:26.802Z,99522.38
2023-03-31T06:13:54.296Z,99517.09
2023-03-31T06:16:21.678Z,99524.03
2023-03-31T06:18:51.230Z,99513.53
2023-03-31T06:21:18.730Z,99518.75
2023-03-31T06:23:46.488Z,99517.03
2023-03-31T06:26:16.935Z,99511.81
2023-03-31T06:28:45.376Z,99511.81
2023-03-31T06:31:16.108Z,99508.41
2023-03-31T06:33:43.972Z,99501.53
2023-03-31T06:36:14.004Z,99513.59
2023-03-31T06:38:42.390Z,99510.19
2023-03-31T06:41:13.213Z,99507.66
2023-03-31T06:43:40.538Z,99510.25
2023-03-31T06:46:08.265Z,99507.63
2023-03-31T06:48:35.936Z,99507.59
2023-03-31T06:51:06.261Z,99503.19
2023-03-31T06:53:33.461Z,99500.50
2023-03-31T06:56:00.803Z,99497.88
2023-03-31T06:58:30.589Z,99503.03
2023-03-31T07:00:58.718Z,99489.16
2023-03-31T07:03:28.826Z,99500.56
2023-03-31T07:05:57.772Z,99497.97
2023-03-31T07:08:25.194Z,99494.47
2023-03-31T07:11:00.497Z,99494.47
2023-03-31T07:13:28.246Z,99487.44
2023-03-31T07:15:56.194Z,99491.78
2023-03-31T07:18:34.860Z,99486.50
2023-03-31T07:21:05.086Z,99482.94
2023-03-31T07:23:38.691Z,99469.91
2023-03-31T07:26:09.998Z,99469.06
2023-03-31T07:28:36.845Z,99477.72
2023-03-31T07:31:11.688Z,99475.88
2023-03-31T07:33:39.930Z,99487.19
2023-03-31T07:36:11.889Z,99482.03
2023-03-31T07:38:44.197Z,99471.69
2023-03-31T07:41:17.642Z,99474.31
2023-03-31T07:43:45.717Z,99475.13
2023-03-31T07:46:27.392Z,99480.41
2023-03-31T07:48:56.838Z,99477.00
2023-03-31T07:51:26.074Z,99479.72
2023-03-31T07:53:53.728Z,99476.16
2023-03-31T07:56:25.049Z,99463.06
2023-03-31T07:58:56.881Z,99464.78
2023-03-31T08:01:25.992Z,99461.28
2023-03-31T08:03:55.646Z,99459.56
2023-03-31T08:06:24.792Z,99451.69
2023-03-31T08:08:52.080Z,99449.03
2023-03-31T08:11:21.122Z,99446.31
2023-03-31T08:13:48.206Z,99448.03
2023-03-31T08:16:15.796Z,99441.84
2023-03-31T08:18:42.726Z,99436.44
2023-03-31T08:21:12.379Z,99428.44
2023-03-31T08:23:39.199Z,99430.75
2023-03-31T08:26:16.390Z,99429.56
2023-03-31T08:28:46.507Z,99435.16
2023-03-31T08:31:16.465Z,99424.22
2023-03-31T08:33:43.599Z,99423.69
2023-03-31T08:36:11.581Z,99423.28
2023-03-31T08:38:46.230Z,99419.78
2023-03-31T08:41:35.163Z,99423.88
2023-03-31T08:44:14.332Z,99418.44
2023-03-31T08:46:43.236Z,99414.78
2023-03-31T08:49:16.938Z,99415.47
2023-03-31T08:51:51.434Z,99408.44
2023-03-31T08:54:29.778Z,99410.84
2023-03-31T08:56:57.247Z,99416.75
2023-03-31T08:59:44.347Z,99412.31
2023-03-31T09:02:34.660Z,99405.22
2023-03-31T09:05:17.713Z,99405.84
2023-03-31T09:07:50.582Z,99394.72
2023-03-31T09:10:28.919Z,99400.84
2023-03-31T09:13:07.569Z,99404.34
2023-03-31T09:15:46.387Z,99397.34
2023-03-31T09:18:38.325Z,99395.72
2023-03-31T09:21:16.293Z,99388.78
2023-03-31T09:23:48.613Z,99390.50
2023-03-31T09:26:34.855Z,99378.31
2023-03-31T09:29:07.164Z,99376.41
2023-03-31T09:31:37.310Z,99382.91
2023-03-31T09:34:13.349Z,99370.63
2023-03-31T09:36:40.843Z,99370.28
2023-03-31T09:39:12.996Z,99358.84
2023-03-31T09:41:45.750Z,99360.22
2023-03-31T09:44:22.526Z,99360.34
2023-03-31T09:46:50.523Z,99349.56
2023-03-31T09:49:27.213Z,99344.69
2023-03-31T09:52:13.672Z,99334.47
2023-03-31T09:54:55.386Z,99328.63
2023-03-31T09:57:34.853Z,99328.72
2023-03-31T10:00:13.989Z,99332.47
2023-03-31T10:02:52.085Z,99321.19
2023-03-31T10:05:31.894Z,99335.06
2023-03-31T10:08:17.027Z,99312.16
2023-03-31T10:10:50.521Z,99320.06
2023-03-31T10:13:21.936Z,99344.47
2023-03-31T10:15:53.305Z,99326.78
2023-03-31T10:18:31.605Z,99336.41
2023-03-31T10:20:58.525Z,99330.50
2023-03-31T10:23:32.286Z,99334.97
2023-03-31T10:26:01.684Z,99329.59
2023-03-31T10:28:32.301Z,99321.75
2023-03-31T10:31:04.374Z,99315.31
2023-03-31T10:33:34.658Z,99312.47
2023-03-31T10:36:25.564Z,99308.44
2023-03-31T10:38:53.985Z,99305.22
2023-03-31T10:41:24.022Z,99302.97
2023-03-31T10:43:54.150Z,99287.56
2023-03-31T10:46:41.436Z,99306.19
2023-03-31T10:49:25.353Z,99298.09
2023-03-31T10:51:57.753Z,99312.53
2023-03-31T10:54:26.238Z,99306.66
2023-03-31T10:56:57.715Z,99307.75
2023-03-31T10:59:47.031Z,99325.84
2023-03-31T11:02:42.253Z,99319.25
2023-03-31T11:05:13.638Z,99327.41
2023-03-31T11:07:59.791Z,99321.78
2023-03-31T11:10:58.890Z,99323.81
2023-03-31T11:14:10.027Z,99330.63
2023-03-31T11:16:56.541Z,99326.97
2023-03-31T11:19:37.983Z,99322.53
2023-03-31T11:22:42.489Z,99316.69
2023-03-31T11:25:56.849Z,99312.66
2023-03-31T11:28:37.610Z,99315.75
2023-03-31T11:31:21.512Z,99306.75
2023-03-31T11:34:14.065Z,99308.34
2023-03-31T11:37:21.530Z,99322.63
2023-03-31T11:40:15.187Z,99304.41
2023-03-31T11:42:56.096Z,99304.34
2023-03-31T11:45:33.743Z,99303.38
2023-03-31T11:48:07.513Z,99304.56
2023-03-31T11:50:40.115Z,99305.75
2023-03-31T11:53:15.512Z,99301.28
2023-03-31T11:55:43.570Z,99301.81
2023-03-31T11:58:20.729Z,99296.00
2023-03-31T12:00:56.230Z,99290.34
2023-03-31T12:03:27.009Z,99289.09
2023-03-31T12:05:59.539Z,99279.31
2023-03-31T12:08:38.174Z,99282.31
2023-03-31T12:11:13.892Z,99274.72
2023-03-31T12:13:51.238Z,99276.97
2023-03-31T12:16:24.010Z,99283.94
2023-03-31T12:19:11.447Z,99284.38
2023-03-31T12:21:43.502Z,99287.97
2023-03-31T12:24:14.553Z,99274.38
2023-03-31T12:27:12.425Z,99290.09
2023-03-31T12:30:01.432Z,99288.28
2023-03-31T12:32:34.878Z,99290.63
2023-03-31T12:35:08.436Z,99269.25
2023-03-31T12:37:41.147Z,99262.13
2023-03-31T12:40:26.740Z,99270.38
2023-03-31T12:43:19.992Z,99256.06
2023-03-31T12:46:05.136Z,99253.78
2023-03-31T12:49:00.935Z,99248.13
2023-03-31T12:51:46.767Z,99245.28
2023-03-31T12:54:40.763Z,99243.56
2023-03-31T12:57:07.487Z,99236.03
2023-03-31T12:59:36.910Z,99230.28
2023-03-31T13:02:10.088Z,99228.63
2023-03-31T13:04:38.271Z,99215.44
2023-03-31T13:07:27.392Z,99212.56
2023-03-31T13:10:20.198Z,99211.88
2023-03-31T13:13:16.578Z,99203.16
2023-03-31T13:15:57.760Z,99208.38
2023-03-31T13:18:25.793Z,99217.16
2023-03-31T13:21:19.089Z,99211.19
2023-03-31T13:23:47.638Z,99209.16
2023-03-31T13:26:41.908Z,99198.50
2023-03-31T13:29:17.580Z,99204.91
2023-03-31T13:32:02.457Z,99210.88
2023-03-31T13:34:32.540Z,99183.06
2023-03-31T13:37:09.361Z,99218.25
2023-03-31T13:39:48.850Z,99207.16
2023-03-31T13:42:35.034Z,99202.06
2023-03-31T13:45:38.817Z,99207.47
2023-03-31T13:48:34.163Z,99203.78
2023-03-31T13:51:21.256Z,99198.81
2023-03-31T13:54:30.518Z,99198.97
2023-03-31T13:57:33.145Z,99185.78
2023-03-31T14:00:33.211Z,99188.50
2023-03-31T14:03:18.515Z,99171.50
2023-03-31T14:05:53.811Z,99175.00
2023-03-31T14:08:53.428Z,99165.06
2023-03-31T14:11:23.402Z,99162.16
2023-03-31T14:14:07.577Z,99154.56
2023-03-31T14:16:45.359Z,99152.50
2023-03-31T14:19:18.613Z,99134.94
2023-03-31T14:22:12.337Z,99144.91
2023-03-31T14:24:56.542Z,99137.81
2023-03-31T14:27:39.276Z,99143.94
2023-03-31T14:30:38.559Z,99159.97
2023-03-31T14:33:34.445Z,99148.13
2023-03-31T14:36:28.421Z,99153.72
2023-03-31T14:39:04.148Z,99156.22
2023-03-31T14:41:31.591Z,99180.34
2023-03-31T14:44:06.556Z,99228.00
2023-03-31T14:46:38.819Z,99202.00
2023-03-31T14:49:27.681Z,99198.63
2023-03-31T14:52:00.048Z,99183.38
2023-03-31T14:54:27.213Z,99191.00
2023-03-31T14:56:58.479Z,99181.00
2023-03-31T14:59:29.357Z,99182.03
2023-03-31T15:02:01.780Z,99190.69
2023-03-31T15:04:41.450Z,99178.91
2023-03-31T15:07:09.827Z,99184.31
2023-03-31T15:09:38.182Z,99178.72
2023-03-31T15:12:13.627Z,99191.63
2023-03-31T15:14:51.876Z,99181.16
2023-03-31T15:17:32.453Z,99183.56
2023-03-31T15:20:01.296Z,99166.47
2023-03-31T15:22:30.714Z,99145.94
2023-03-31T15:24:58.442Z,99150.97
2023-03-31T15:27:38.115Z,99154.00
2023-03-31T15:30:08.032Z,99143.59
2023-03-31T15:32:38.898Z,99149.97
2023-03-31T15:35:33.252Z,99142.25
2023-03-31T15:38:03.301Z,99154.69
2023-03-31T15:40:44.244Z,99156.09
2023-03-31T15:43:20.292Z,99146.78
2023-03-31T15:45:57.219Z,99145.06
2023-03-31T15:48:34.515Z,99149.81
2023-03-31T15:51:02.698Z,99147.13
2023-03-31T15:56:46.649Z,99148.81
2023-03-31T15:59:34.274Z,99142.38
2023-03-31T16:02:13.585Z,99160.19
2023-03-31T16:04:41.995Z,99140.94
2023-03-31T16:07:29.978Z,99135.28
2023-03-31T16:09:56.878Z,99139.09
2023-03-31T16:12:38.103Z,99139.22
2023-03-31T16:15:09.812Z,99148.41
2023-03-31T16:17:43.189Z,99145.16
2023-03-31T16:20:28.621Z,99144.00
2023-03-31T16:22:59.635Z,99145.09
2023-03-31T16:25:30.698Z,99149.47
2023-03-31T16:28:01.784Z,99149.41
2023-03-31T16:30:40.753Z,99147.56
2023-03-31T16:33:14.740Z,99158.88
2023-03-31T16:35:51.044Z,99154.19
2023-03-31T16:38:18.933Z,99163.59
2023-03-31T16:40:48.309Z,99150.69
2023-03-31T16:43:34.045Z,99147.41
2023-03-31T16:46:05.952Z,99145.69
2023-03-31T16:48:34.391Z,99133.72
2023-03-31T16:51:02.623Z,99142.72
2023-03-31T16:53:34.007Z,99141.97
2023-03-31T16:56:00.993Z,99132.13
2023-03-31T16:58:29.426Z,99141.25
2023-03-31T17:01:02.477Z,99142.91
2023-03-31T17:03:29.841Z,99145.00
2023-03-31T17:05:59.428Z,99145.13
2023-03-31T17:08:27.871Z,99143.66
2023-03-31T17:11:04.089Z,99144.56
2023-03-31T17:13:32.504Z,99150.81
2023-03-31T17:18:47.275Z,99152.88
2023-03-31T17:21:19.414Z,99151.38
2023-03-31T17:23:49.886Z,99152.31
2023-03-31T17:26:17.959Z,99157.97
2023-03-31T17:28:45.650Z,99146.84
2023-03-31T17:31:21.453Z,99148.66
2023-03-31T17:33:51.760Z,99152.28
2023-03-31T17:36:19.465Z,99149.22
2023-03-31T17:38:47.125Z,99142.41
2023-03-31T17:41:14.353Z,99152.84
2023-03-31T17:43:45.606Z,99158.31
2023-03-31T17:46:13.442Z,99145.19
2023-03-31T17:48:50.425Z,99140.19
2023-03-31T17:51:19.630Z,99149.72
2023-03-31T17:53:48.123Z,99135.94
2023-03-31T17:56:16.825Z,99141.25
2023-03-31T17:58:44.214Z,99136.03
2023-03-31T18:01:12.586Z,99144.84
2023-03-31T18:03:40.448Z,99143.09
2023-03-31T18:06:11.179Z,99131.69
2023-03-31T18:08:41.132Z,99137.53
2023-03-31T18:11:09.290Z,99139.09
2023-03-31T18:13:37.492Z,99130.38
2023-03-31T18:16:09.639Z,99145.47
2023-03-31T18:18:37.908Z,99137.63
2023-03-31T18:21:10.250Z,99145.59
2023-03-31T18:23:38.056Z,99153.41
2023-03-31T18:26:07.205Z,99149.19
2023-03-31T18:28:34.407Z,99143.09
2023-03-31T18:31:05.908Z,99144.75
2023-03-31T18:33:32.809Z,99145.72
2023-03-31T18:36:00.732Z,99141.59
2023-03-31T18:38:28.244Z,99153.00
2023-03-31T18:40:55.317Z,99145.09
2023-03-31T18:43:24.590Z,99139.88
2023-03-31T18:45:55.200Z,99138.06
2023-03-31T18:48:23.184Z,99145.00
2023-03-31T18:50:54.246Z,99159.63
2023-03-31T18:53:23.132Z,99146.25
2023-03-31T18:55:58.567Z,99146.25
2023-03-31T18:58:30.878Z,99146.16
2023-03-31T19:00:58.820Z,99137.31
2023-03-31T19:03:28.573Z,99152.63
2023-03-31T19:06:10.957Z,99144.00
2023-03-31T19:08:38.731Z,99147.41
2023-03-31T19:11:11.743Z,99155.28
2023-03-31T19:13:40.082Z,99162.22
2023-03-31T19:16:06.973Z,99156.94
2023-03-31T19:18:34.387Z,99162.34
2023-03-31T19:21:02.026Z,99156.13
2023-03-31T19:23:31.039Z,99147.75
2023-03-31T19:25:59.515Z,99169.88
2023-03-31T19:28:27.789Z,99157.03
2023-03-31T19:30:58.681Z,99160.75
2023-03-31T19:33:27.681Z,99157.34
2023-03-31T19:35:54.982Z,99168.19
2023-03-31T19:38:22.634Z,99152.06
2023-03-31T19:40:50.045Z,99168.63
2023-03-31T19:43:23.979Z,99168.94
2023-03-31T19:45:56.936Z,99164.81
2023-03-31T19:48:26.321Z,99164.03
2023-03-31T19:50:56.237Z,99169.25
2023-03-31T19:53:23.917Z,99168.34
2023-03-31T19:56:10.845Z,99158.72
2023-03-31T19:58:38.541Z,99154.47
2023-03-31T20:01:08.578Z,99151.69
2023-03-31T20:03:36.073Z,99165.09
2023-03-31T20:06:12.255Z,99164.28
2023-03-31T20:08:42.531Z,99159.34
2023-03-31T20:11:12.557Z,99154.41
2023-03-31T20:13:42.071Z,99147.38
2023-03-31T20:16:14.142Z,99160.63
2023-03-31T20:18:49.480Z,99158.03
2023-03-31T20:21:20.172Z,99143.38
2023-03-31T20:23:47.923Z,99154.53
2023-03-31T20:26:18.945Z,99151.19
2023-03-31T20:28:47.967Z,99140.88
2023-03-31T20:31:21.295Z,99150.31
2023-03-31T20:33:49.107Z,99152.91
2023-03-31T20:36:19.564Z,99158.13
2023-03-31T20:38:51.273Z,99145.88
2023-03-31T20:41:21.196Z,99144.16
2023-03-31T20:43:51.054Z,99162.94
2023-03-31T20:46:18.540Z,99154.41
2023-03-31T20:48:48.128Z,99161.41
2023-03-31T20:51:18.511Z,99151.00
2023-03-31T20:53:52.779Z,99157.91
2023-03-31T20:56:35.479Z,99160.44
2023-03-31T20:59:04.857Z,99154.22
2023-03-31T21:01:34.131Z,99150.88
2023-03-31T21:04:02.946Z,99151.94
2023-03-31T21:06:38.268Z,99151.00
2023-03-31T21:09:05.829Z,99159.72
2023-03-31T21:11:33.093Z,99153.66
2023-03-31T21:14:00.925Z,99153.78
2023-03-31T21:16:27.993Z,99165.22
2023-03-31T21:18:55.091Z,99152.81
2023-03-31T21:21:24.548Z,99153.75
2023-03-31T21:23:53.801Z,99155.44
2023-03-31T21:26:21.924Z,99149.31
2023-03-31T21:28:54.234Z,99156.41
2023-03-31T21:31:24.357Z,99150.88
2023-03-31T21:33:52.940Z,99147.38
2023-03-31T21:36:23.139Z,99145.56
2023-03-31T21:38:53.042Z,99151.75
2023-03-31T21:41:23.104Z,99150.78
2023-03-31T21:43:51.322Z,99143.69
2023-03-31T21:46:24.501Z,99143.72
2023-03-31T21:48:51.584Z,99141.06
2023-03-31T21:51:22.189Z,99140.34
2023-03-31T21:53:53.205Z,99140.34
2023-03-31T21:56:20.572Z,99135.03
2023-03-31T21:58:47.684Z,99142.06
2023-03-31T22:01:14.874Z,99138.69
2023-03-31T22:03:42.718Z,99146.41
2023-03-31T22:06:10.583Z,99141.00
2023-03-31T22:08:38.752Z,99142.19
2023-03-31T22:11:08.238Z,99142.19
2023-03-31T22:13:35.856Z,99141.38
2023-03-31T22:16:04.138Z,99137.91
2023-03-31T22:18:31.307Z,99151.00
2023-03-31T22:21:00.966Z,99145.88
2023-03-31T22:23:28.497Z,99148.47
2023-03-31T22:25:55.872Z,99140.84
2023-03-31T22:28:23.145Z,99133.84
2023-03-31T22:30:50.564Z,99141.81
2023-03-31T22:33:17.530Z,99138.38
2023-03-31T22:35:45.166Z,99134.13
2023-03-31T22:38:13.994Z,99133.94
2023-03-31T22:40:41.012Z,99124.75
2023-03-31T22:43:08.662Z,99122.13
2023-03-31T22:45:37.838Z,99127.47
2023-03-31T22:48:09.710Z,99115.38
2023-03-31T22:50:39.547Z,99120.69
2023-03-31T22:53:08.581Z,99128.44
2023-03-31T22:55:44.221Z,99123.13
2023-03-31T22:58:24.513Z,99138.34
2023-03-31T23:00:55.983Z,99114.69
2023-03-31T23:03:23.402Z,99130.53
2023-03-31T23:05:50.996Z,99125.91
2023-03-31T23:08:19.424Z,99130.53
2023-03-31T23:10:57.962Z,99124.25
2023-03-31T23:13:27.399Z,99126.94
2023-03-31T23:15:56.198Z,99128.94
2023-03-31T23:18:24.334Z,99132.34
2023-03-31T23:20:52.414Z,99131.53
2023-03-31T23:23:19.797Z,99124.66
2023-03-31T23:25:46.877Z,99130.84
2023-03-31T23:28:14.599Z,99126.56
2023-03-31T23:30:41.786Z,99129.09
2023-03-31T23:33:09.129Z,99130.63
2023-03-31T23:35:38.893Z,99134.31
2023-03-31T23:38:07.422Z,99130.84
2023-03-31T23:40:37.431Z,99118.72
2023-03-31T23:43:05.004Z,99126.59
2023-03-31T23:45:32.425Z,99127.34
2023-03-31T23:48:00.464Z,99122.16
2023-03-31T23:50:31.388Z,99125.03
2023-03-31T23:52:59.556Z,99122.53
2023-03-31T23:55:27.910Z,99115.28
2023-03-31T23:57:56.582Z,99109.44
